sensor_id;sensor_type;location;lat;lon;timestamp;pressure;altitude;pressure_sealevel;temperature;humidity
63090;BME280;49174;43.198;27.824;2023-05-02T00:43:31;102262.44;;;6.39;91.51
63090;BME280;49174;43.198;27.824;2023-05-02T00:45:57;102261.13;;;6.34;91.13
63090;BME280;49174;43.198;27.824;2023-05-02T00:48:24;102255.66;;;6.35;91.75
63090;BME280;49174;43.198;27.824;2023-05-02T00:50:50;102261.41;;;6.31;92.14
63090;BME280;49174;43.198;27.824;2023-05-02T00:53:16;102259.00;;;6.28;91.33
63090;BME280;49174;43.198;27.824;2023-05-02T00:55:42;102266.31;;;6.25;92.56
63090;BME280;49174;43.198;27.824;2023-05-02T00:58:11;102264.88;;;6.21;92.00
63090;BME280;49174;43.198;27.824;2023-05-02T01:08:46;102256.31;;;6.28;94.24
63090;BME280;49174;43.198;27.824;2023-05-02T02:32:35;102269.94;;;6.03;91.78
63090;BME280;49174;43.198;27.824;2023-05-02T02:35:02;102268.91;;;5.95;90.55
63090;BME280;49174;43.198;27.824;2023-05-02T02:37:38;102270.88;;;5.81;90.45
63090;BME280;49174;43.198;27.824;2023-05-02T02:40:20;102266.56;;;5.69;91.17
63090;BME280;49174;43.198;27.824;2023-05-02T02:42:58;102271.56;;;5.63;90.88
63090;BME280;49174;43.198;27.824;2023-05-02T02:45:33;102276.56;;;5.56;91.55
63090;BME280;49174;43.198;27.824;2023-05-02T02:48:18;102269.31;;;5.47;92.66
63090;BME280;49174;43.198;27.824;2023-05-02T02:51:02;102273.44;;;5.40;93.50
63090;BME280;49174;43.198;27.824;2023-05-02T02:56:06;102280.88;;;5.36;92.39
63090;BME280;49174;43.198;27.824;2023-05-02T03:01:05;102288.31;;;5.32;94.30
63090;BME280;49174;43.198;27.824;2023-05-02T03:03:33;102287.94;;;5.26;94.03
63090;BME280;49174;43.198;27.824;2023-05-02T03:06:00;102285.03;;;5.29;96.10
63090;BME280;49174;43.198;27.824;2023-05-02T03:08:37;102293.69;;;5.21;93.80
63090;BME280;49174;43.198;27.824;2023-05-02T03:11:03;102281.28;;;5.20;95.18
63090;BME280;49174;43.198;27.824;2023-05-02T03:13:28;102284.94;;;5.19;96.34
63090;BME280;49174;43.198;27.824;2023-05-02T03:18:21;102285.19;;;5.16;96.65
63090;BME280;49174;43.198;27.824;2023-05-02T03:20:47;102286.28;;;5.13;96.70
63090;BME280;49174;43.198;27.824;2023-05-02T03:23:12;102292.00;;;5.09;97.15
63090;BME280;49174;43.198;27.824;2023-05-02T03:25:37;102292.72;;;5.11;98.35
63090;BME280;49174;43.198;27.824;2023-05-02T03:28:03;102303.91;;;5.16;99.44
63090;BME280;49174;43.198;27.824;2023-05-02T03:30:29;102303.41;;;5.22;98.69
63090;BME280;49174;43.198;27.824;2023-05-02T03:32:54;102304.84;;;5.26;99.57
63090;BME280;49174;43.198;27.824;2023-05-02T03:35:20;102313.75;;;5.38;100.00
63090;BME280;49174;43.198;27.824;2023-05-02T03:37:45;102311.88;;;5.50;100.00
63090;BME280;49174;43.198;27.824;2023-05-02T03:40:11;102315.88;;;5.55;100.00
63090;BME280;49174;43.198;27.824;2023-05-02T03:42:36;102318.19;;;5.60;100.00
63090;BME280;49174;43.198;27.824;2023-05-02T03:45:06;102318.38;;;5.68;100.00
63090;BME280;49174;43.198;27.824;2023-05-02T03:47:32;102324.69;;;5.78;100.00
63090;BME280;49174;43.198;27.824;2023-05-02T03:49:58;102321.03;;;5.91;100.00
63090;BME280;49174;43.198;27.824;2023-05-02T03:52:23;102331.84;;;6.00;100.00
63090;BME280;49174;43.198;27.824;2023-05-02T03:54:49;102333.41;;;6.03;100.00
63090;BME280;49174;43.198;27.824;2023-05-02T03:57:15;102336.03;;;6.14;100.00
63090;BME280;49174;43.198;27.824;2023-05-02T03:59:40;102338.09;;;6.22;100.00
63090;BME280;49174;43.198;27.824;2023-05-02T04:02:07;102343.03;;;6.26;100.00
63090;BME280;49174;43.198;27.824;2023-05-02T04:04:33;102339.47;;;6.37;100.00
63090;BME280;49174;43.198;27.824;2023-05-02T04:06:58;102349.41;;;6.46;100.00
63090;BME280;49174;43.198;27.824;2023-05-02T04:09:24;102346.94;;;6.55;100.00
63090;BME280;49174;43.198;27.824;2023-05-02T04:11:50;102351.03;;;6.59;100.00
63090;BME280;49174;43.198;27.824;2023-05-02T04:14:16;102351.25;;;6.67;100.00
63090;BME280;49174;43.198;27.824;2023-05-02T04:16:50;102350.69;;;6.73;100.00
63090;BME280;49174;43.198;27.824;2023-05-02T04:19:17;102346.63;;;6.79;100.00
63090;BME280;49174;43.198;27.824;2023-05-02T04:21:43;102347.09;;;6.84;100.00
63090;BME280;49174;43.198;27.824;2023-05-02T04:24:09;102346.56;;;6.90;100.00
63090;BME280;49174;43.198;27.824;2023-05-02T04:26:34;102344.06;;;6.98;100.00
63090;BME280;49174;43.198;27.824;2023-05-02T04:29:00;102342.94;;;7.01;100.00
63090;BME280;49174;43.198;27.824;2023-05-02T04:31:26;102345.50;;;7.02;100.00
63090;BME280;49174;43.198;27.824;2023-05-02T04:33:52;102353.13;;;7.07;100.00
63090;BME280;49174;43.198;27.824;2023-05-02T04:36:18;102348.94;;;7.14;100.00
63090;BME280;49174;43.198;27.824;2023-05-02T04:38:44;102351.38;;;7.27;100.00
63090;BME280;49174;43.198;27.824;2023-05-02T04:41:09;102355.09;;;7.35;98.23
63090;BME280;49174;43.198;27.824;2023-05-02T04:43:35;102355.41;;;7.42;98.38
63090;BME280;49174;43.198;27.824;2023-05-02T04:46:01;102347.63;;;7.49;97.99
63090;BME280;49174;43.198;27.824;2023-05-02T04:48:27;102347.13;;;7.65;95.85
63090;BME280;49174;43.198;27.824;2023-05-02T04:50:52;102342.63;;;7.75;95.17
63090;BME280;49174;43.198;27.824;2023-05-02T04:53:20;102354.06;;;7.77;93.76
63090;BME280;49174;43.198;27.824;2023-05-02T04:55:46;102354.06;;;7.87;93.22
63090;BME280;49174;43.198;27.824;2023-05-02T04:58:11;102349.97;;;7.92;93.52
63090;BME280;49174;43.198;27.824;2023-05-02T05:00:43;102352.53;;;8.03;94.23
63090;BME280;49174;43.198;27.824;2023-05-02T05:03:08;102360.59;;;8.13;92.86
63090;BME280;49174;43.198;27.824;2023-05-02T05:05:34;102355.94;;;8.25;93.20
63090;BME280;49174;43.198;27.824;2023-05-02T05:07:59;102358.22;;;8.39;92.13
63090;BME280;49174;43.198;27.824;2023-05-02T05:10:25;102352.53;;;8.52;92.40
63090;BME280;49174;43.198;27.824;2023-05-02T05:12:50;102356.47;;;8.58;91.63
63090;BME280;49174;43.198;27.824;2023-05-02T05:15:17;102362.72;;;8.68;91.57
63090;BME280;49174;43.198;27.824;2023-05-02T05:17:46;102356.56;;;8.85;90.16
63090;BME280;49174;43.198;27.824;2023-05-02T05:20:11;102359.38;;;8.93;89.53
63090;BME280;49174;43.198;27.824;2023-05-02T05:22:41;102360.34;;;9.02;89.47
63090;BME280;49174;43.198;27.824;2023-05-02T05:25:07;102363.97;;;9.11;88.24
63090;BME280;49174;43.198;27.824;2023-05-02T05:27:34;102365.50;;;9.23;88.22
63090;BME280;49174;43.198;27.824;2023-05-02T05:30:00;102367.31;;;9.32;87.01
63090;BME280;49174;43.198;27.824;2023-05-02T05:32:25;102363.44;;;9.45;85.34
63090;BME280;49174;43.198;27.824;2023-05-02T05:34:51;102361.00;;;9.69;82.89
63090;BME280;49174;43.198;27.824;2023-05-02T05:37:18;102361.41;;;9.74;82.43
63090;BME280;49174;43.198;27.824;2023-05-02T05:39:44;102367.59;;;9.84;83.30
63090;BME280;49174;43.198;27.824;2023-05-02T05:42:10;102368.06;;;9.98;83.89
63090;BME280;49174;43.198;27.824;2023-05-02T05:44:37;102371.06;;;10.13;84.30
63090;BME280;49174;43.198;27.824;2023-05-02T05:47:02;102370.69;;;10.25;83.52
63090;BME280;49174;43.198;27.824;2023-05-02T05:49:28;102382.34;;;10.44;82.56
63090;BME280;49174;43.198;27.824;2023-05-02T05:51:53;102375.16;;;10.52;81.28
63090;BME280;49174;43.198;27.824;2023-05-02T05:54:19;102377.28;;;10.67;81.79
63090;BME280;49174;43.198;27.824;2023-05-02T05:56:44;102374.88;;;10.82;81.79
63090;BME280;49174;43.198;27.824;2023-05-02T05:59:10;102375.03;;;11.06;81.19
63090;BME280;49174;43.198;27.824;2023-05-02T06:01:35;102373.06;;;11.25;78.60
63090;BME280;49174;43.198;27.824;2023-05-02T06:04:03;102380.56;;;11.39;77.82
63090;BME280;49174;43.198;27.824;2023-05-02T06:06:29;102379.00;;;11.62;76.10
63090;BME280;49174;43.198;27.824;2023-05-02T06:08:56;102374.13;;;11.74;77.37
63090;BME280;49174;43.198;27.824;2023-05-02T06:11:22;102374.19;;;11.91;76.89
63090;BME280;49174;43.198;27.824;2023-05-02T06:13:50;102378.13;;;12.13;76.26
63090;BME280;49174;43.198;27.824;2023-05-02T06:16:15;102369.34;;;12.35;74.61
63090;BME280;49174;43.198;27.824;2023-05-02T06:18:43;102370.69;;;12.56;73.42
63090;BME280;49174;43.198;27.824;2023-05-02T06:21:08;102368.13;;;12.79;71.08
63090;BME280;49174;43.198;27.824;2023-05-02T06:23:34;102371.94;;;13.09;72.88
63090;BME280;49174;43.198;27.824;2023-05-02T06:26:00;102370.38;;;13.31;71.12
63090;BME280;49174;43.198;27.824;2023-05-02T06:28:26;102367.41;;;13.57;67.10
63090;BME280;49174;43.198;27.824;2023-05-02T06:31:02;102374.56;;;13.81;65.71
63090;BME280;49174;43.198;27.824;2023-05-02T06:33:28;102370.19;;;14.03;66.79
63090;BME280;49174;43.198;27.824;2023-05-02T06:35:54;102373.75;;;14.26;65.82
63090;BME280;49174;43.198;27.824;2023-05-02T06:38:20;102375.63;;;14.49;66.53
63090;BME280;49174;43.198;27.824;2023-05-02T06:40:46;102372.50;;;14.75;67.10
63090;BME280;49174;43.198;27.824;2023-05-02T06:43:12;102374.59;;;15.03;64.40
63090;BME280;49174;43.198;27.824;2023-05-02T06:45:38;102378.66;;;15.22;64.29
63090;BME280;49174;43.198;27.824;2023-05-02T06:48:04;102386.03;;;15.42;63.92
63090;BME280;49174;43.198;27.824;2023-05-02T06:50:29;102380.97;;;15.69;61.49
63090;BME280;49174;43.198;27.824;2023-05-02T06:52:55;102382.09;;;15.96;56.56
63090;BME280;49174;43.198;27.824;2023-05-02T06:55:21;102384.94;;;16.24;56.12
63090;BME280;49174;43.198;27.824;2023-05-02T06:57:49;102394.38;;;16.50;53.17
63090;BME280;49174;43.198;27.824;2023-05-02T07:00:16;102387.66;;;16.74;52.39
63090;BME280;49174;43.198;27.824;2023-05-02T07:02:43;102390.88;;;17.12;49.88
63090;BME280;49174;43.198;27.824;2023-05-02T07:05:10;102382.88;;;17.46;49.17
63090;BME280;49174;43.198;27.824;2023-05-02T07:07:35;102390.16;;;17.73;46.87
63090;BME280;49174;43.198;27.824;2023-05-02T07:10:02;102394.69;;;18.01;46.00
63090;BME280;49174;43.198;27.824;2023-05-02T07:12:28;102384.44;;;18.23;45.22
63090;BME280;49174;43.198;27.824;2023-05-02T07:14:53;102388.25;;;18.42;47.52
63090;BME280;49174;43.198;27.824;2023-05-02T07:17:19;102384.69;;;18.61;47.54
63090;BME280;49174;43.198;27.824;2023-05-02T07:19:45;102381.31;;;18.79;46.73
63090;BME280;49174;43.198;27.824;2023-05-02T07:22:10;102389.06;;;19.02;47.98
63090;BME280;49174;43.198;27.824;2023-05-02T07:24:39;102385.72;;;19.00;45.80
63090;BME280;49174;43.198;27.824;2023-05-02T07:27:04;102396.00;;;18.51;47.44
63090;BME280;49174;43.198;27.824;2023-05-02T07:29:30;102392.25;;;18.86;46.58
63090;BME280;49174;43.198;27.824;2023-05-02T07:31:55;102394.97;;;18.86;45.76
63090;BME280;49174;43.198;27.824;2023-05-02T07:34:21;102398.13;;;18.63;47.08
63090;BME280;49174;43.198;27.824;2023-05-02T07:36:47;102398.53;;;18.33;46.73
63090;BME280;49174;43.198;27.824;2023-05-02T07:39:12;102402.94;;;18.34;49.31
63090;BME280;49174;43.198;27.824;2023-05-02T07:41:38;102398.53;;;18.73;48.95
63090;BME280;49174;43.198;27.824;2023-05-02T07:44:03;102400.66;;;18.91;46.57
63090;BME280;49174;43.198;27.824;2023-05-02T07:46:29;102394.13;;;19.12;48.20
63090;BME280;49174;43.198;27.824;2023-05-02T07:48:55;102398.75;;;19.11;48.77
63090;BME280;49174;43.198;27.824;2023-05-02T07:51:21;102401.63;;;19.36;49.37
63090;BME280;49174;43.198;27.824;2023-05-02T07:53:49;102406.44;;;19.41;50.77
63090;BME280;49174;43.198;27.824;2023-05-02T07:56:17;102404.75;;;19.47;51.50
63090;BME280;49174;43.198;27.824;2023-05-02T07:58:43;102408.69;;;19.57;51.41
63090;BME280;49174;43.198;27.824;2023-05-02T08:01:08;102406.09;;;19.82;50.99
63090;BME280;49174;43.198;27.824;2023-05-02T08:03:33;102407.22;;;19.68;51.32
63090;BME280;49174;43.198;27.824;2023-05-02T08:05:59;102406.25;;;19.94;52.75
63090;BME280;49174;43.198;27.824;2023-05-02T08:08:26;102405.53;;;20.05;52.56
63090;BME280;49174;43.198;27.824;2023-05-02T08:10:52;102402.59;;;20.07;50.93
63090;BME280;49174;43.198;27.824;2023-05-02T08:13:18;102410.03;;;19.35;53.27
63090;BME280;49174;43.198;27.824;2023-05-02T08:15:43;102410.06;;;18.35;54.79
63090;BME280;49174;43.198;27.824;2023-05-02T08:18:09;102408.84;;;18.58;54.66
63090;BME280;49174;43.198;27.824;2023-05-02T08:20:34;102408.84;;;19.04;55.70
63090;BME280;49174;43.198;27.824;2023-05-02T08:23:00;102408.16;;;19.42;54.31
63090;BME280;49174;43.198;27.824;2023-05-02T08:25:26;102406.25;;;19.42;51.81
63090;BME280;49174;43.198;27.824;2023-05-02T08:27:51;102412.81;;;19.22;53.33
63090;BME280;49174;43.198;27.824;2023-05-02T08:30:17;102418.97;;;18.90;52.41
63090;BME280;49174;43.198;27.824;2023-05-02T08:32:42;102407.16;;;18.70;51.19
63090;BME280;49174;43.198;27.824;2023-05-02T08:35:08;102416.44;;;18.82;51.82
63090;BME280;49174;43.198;27.824;2023-05-02T08:37:34;102416.47;;;18.75;53.06
63090;BME280;49174;43.198;27.824;2023-05-02T08:40:00;102414.94;;;19.19;51.74
63090;BME280;49174;43.198;27.824;2023-05-02T08:42:25;102414.22;;;19.44;50.72
63090;BME280;49174;43.198;27.824;2023-05-02T08:44:52;102422.13;;;19.79;50.03
63090;BME280;49174;43.198;27.824;2023-05-02T08:47:18;102421.53;;;19.63;52.92
63090;BME280;49174;43.198;27.824;2023-05-02T08:49:44;102415.09;;;19.38;53.59
63090;BME280;49174;43.198;27.824;2023-05-02T08:52:11;102410.78;;;19.75;52.93
63090;BME280;49174;43.198;27.824;2023-05-02T08:54:37;102414.28;;;20.27;50.33
63090;BME280;49174;43.198;27.824;2023-05-02T08:57:03;102410.09;;;20.57;47.67
63090;BME280;49174;43.198;27.824;2023-05-02T08:59:29;102410.31;;;19.85;49.35
63090;BME280;49174;43.198;27.824;2023-05-02T09:02:42;102412.22;;;19.78;52.27
63090;BME280;49174;43.198;27.824;2023-05-02T09:04:49;102411.50;;;19.37;53.07
63090;BME280;49174;43.198;27.824;2023-05-02T09:07:18;102416.03;;;20.15;52.13
63090;BME280;49174;43.198;27.824;2023-05-02T09:09:43;102409.38;;;20.68;50.41
63090;BME280;49174;43.198;27.824;2023-05-02T09:12:09;102403.25;;;20.66;49.40
63090;BME280;49174;43.198;27.824;2023-05-02T09:14:34;102415.34;;;20.58;49.39
63090;BME280;49174;43.198;27.824;2023-05-02T09:17:00;102406.63;;;20.68;50.02
63090;BME280;49174;43.198;27.824;2023-05-02T09:19:26;102408.28;;;20.94;50.54
63090;BME280;49174;43.198;27.824;2023-05-02T09:21:51;102402.00;;;21.30;50.72
63090;BME280;49174;43.198;27.824;2023-05-02T09:24:19;102399.97;;;21.62;49.20
63090;BME280;49174;43.198;27.824;2023-05-02T09:27:02;102406.00;;;21.53;48.28
63090;BME280;49174;43.198;27.824;2023-05-02T09:29:28;102399.50;;;21.66;50.77
63090;BME280;49174;43.198;27.824;2023-05-02T09:32:00;102396.44;;;21.55;50.01
63090;BME280;49174;43.198;27.824;2023-05-02T09:34:25;102396.38;;;21.62;51.82
63090;BME280;49174;43.198;27.824;2023-05-02T09:36:51;102392.44;;;21.88;51.12
63090;BME280;49174;43.198;27.824;2023-05-02T09:39:27;102397.28;;;21.74;49.47
63090;BME280;49174;43.198;27.824;2023-05-02T09:41:57;102394.38;;;21.69;50.52
63090;BME280;49174;43.198;27.824;2023-05-02T09:44:35;102392.19;;;21.90;50.03
63090;BME280;49174;43.198;27.824;2023-05-02T09:47:01;102397.13;;;21.99;51.38
63090;BME280;49174;43.198;27.824;2023-05-02T09:49:40;102397.41;;;22.40;49.79
63090;BME280;49174;43.198;27.824;2023-05-02T09:54:36;102403.31;;;22.55;48.78
63090;BME280;49174;43.198;27.824;2023-05-02T09:57:02;102395.38;;;22.47;50.87
63090;BME280;49174;43.198;27.824;2023-05-02T09:59:27;102397.72;;;22.73;49.75
63090;BME280;49174;43.198;27.824;2023-05-02T10:01:58;102398.81;;;22.96;48.18
63090;BME280;49174;43.198;27.824;2023-05-02T10:04:24;102397.81;;;22.79;49.15
63090;BME280;49174;43.198;27.824;2023-05-02T10:06:52;102404.03;;;22.74;50.47
63090;BME280;49174;43.198;27.824;2023-05-02T10:09:19;102397.22;;;23.12;48.89
63090;BME280;49174;43.198;27.824;2023-05-02T10:11:46;102400.38;;;23.15;47.43
63090;BME280;49174;43.198;27.824;2023-05-02T10:14:15;102400.22;;;22.87;48.57
63090;BME280;49174;43.198;27.824;2023-05-02T10:17:48;102399.03;;;23.06;45.62
63090;BME280;49174;43.198;27.824;2023-05-02T10:22:24;102401.91;;;22.88;47.02
63090;BME280;49174;43.198;27.824;2023-05-02T10:24:51;102399.28;;;23.16;44.48
63090;BME280;49174;43.198;27.824;2023-05-02T10:27:17;102395.66;;;23.28;44.62
63090;BME280;49174;43.198;27.824;2023-05-02T10:29:43;102392.22;;;23.61;42.42
63090;BME280;49174;43.198;27.824;2023-05-02T10:32:10;102390.28;;;23.73;41.94
63090;BME280;49174;43.198;27.824;2023-05-02T10:34:38;102389.63;;;23.54;42.52
63090;BME280;49174;43.198;27.824;2023-05-02T10:37:05;102391.50;;;23.66;40.17
63090;BME280;49174;43.198;27.824;2023-05-02T10:39:31;102394.75;;;23.74;41.61
63090;BME280;49174;43.198;27.824;2023-05-02T10:41:58;102390.34;;;23.90;39.57
63090;BME280;49174;43.198;27.824;2023-05-02T10:44:37;102392.19;;;24.13;38.01
63090;BME280;49174;43.198;27.824;2023-05-02T10:47:25;102397.84;;;23.66;38.17
63090;BME280;49174;43.198;27.824;2023-05-02T10:49:55;102386.34;;;23.69;38.53
63090;BME280;49174;43.198;27.824;2023-05-02T10:52:33;102391.78;;;23.93;39.20
63090;BME280;49174;43.198;27.824;2023-05-02T10:55:23;102395.66;;;24.08;38.48
63090;BME280;49174;43.198;27.824;2023-05-02T11:00:31;102394.50;;;23.64;39.11
63090;BME280;49174;43.198;27.824;2023-05-02T11:02:58;102399.44;;;23.74;36.92
63090;BME280;49174;43.198;27.824;2023-05-02T11:05:25;102389.56;;;22.79;38.95
63090;BME280;49174;43.198;27.824;2023-05-02T11:10:39;102392.69;;;23.06;39.51
63090;BME280;49174;43.198;27.824;2023-05-02T11:13:04;102392.47;;;23.71;37.78
63090;BME280;49174;43.198;27.824;2023-05-02T11:18:04;102383.56;;;22.46;37.01
63090;BME280;49174;43.198;27.824;2023-05-02T11:20:38;102378.88;;;21.75;35.33
63090;BME280;49174;43.198;27.824;2023-05-02T11:25:49;102383.78;;;22.45;36.59
63090;BME280;49174;43.198;27.824;2023-05-02T11:28:38;102387.31;;;22.22;35.17
63090;BME280;49174;43.198;27.824;2023-05-02T11:31:05;102381.41;;;21.58;35.23
63090;BME280;49174;43.198;27.824;2023-05-02T11:33:31;102386.59;;;21.29;37.23
63090;BME280;49174;43.198;27.824;2023-05-02T11:35:57;102374.97;;;21.82;37.93
63090;BME280;49174;43.198;27.824;2023-05-02T11:38:24;102382.19;;;21.65;35.57
63090;BME280;49174;43.198;27.824;2023-05-02T11:40:59;102386.34;;;21.31;37.17
63090;BME280;49174;43.198;27.824;2023-05-02T11:43:27;102379.78;;;21.87;36.79
63090;BME280;49174;43.198;27.824;2023-05-02T11:45:55;102375.78;;;22.32;36.06
63090;BME280;49174;43.198;27.824;2023-05-02T11:48:22;102378.69;;;22.60;36.48
63090;BME280;49174;43.198;27.824;2023-05-02T11:50:54;102372.06;;;22.38;34.63
63090;BME280;49174;43.198;27.824;2023-05-02T11:53:27;102371.03;;;22.97;34.52
63090;BME280;49174;43.198;27.824;2023-05-02T11:56:00;102379.44;;;21.65;33.66
63090;BME280;49174;43.198;27.824;2023-05-02T11:58:28;102381.91;;;20.93;34.28
63090;BME280;49174;43.198;27.824;2023-05-02T12:00:57;102375.53;;;20.99;34.47
63090;BME280;49174;43.198;27.824;2023-05-02T12:05:50;102376.09;;;21.26;33.96
63090;BME280;49174;43.198;27.824;2023-05-02T12:08:26;102373.59;;;22.03;34.32
63090;BME280;49174;43.198;27.824;2023-05-02T12:10:55;102377.31;;;22.27;32.58
63090;BME280;49174;43.198;27.824;2023-05-02T12:13:24;102377.94;;;21.51;33.50
63090;BME280;49174;43.198;27.824;2023-05-02T12:15:50;102384.38;;;21.19;35.34
63090;BME280;49174;43.198;27.824;2023-05-02T12:18:16;102382.16;;;21.28;35.21
63090;BME280;49174;43.198;27.824;2023-05-02T12:20:43;102380.41;;;21.71;34.06
63090;BME280;49174;43.198;27.824;2023-05-02T12:23:09;102383.28;;;22.06;33.00
63090;BME280;49174;43.198;27.824;2023-05-02T12:25:39;102373.25;;;22.30;32.45
63090;BME280;49174;43.198;27.824;2023-05-02T12:28:06;102362.22;;;22.18;32.03
63090;BME280;49174;43.198;27.824;2023-05-02T12:30:32;102360.81;;;22.39;33.21
63090;BME280;49174;43.198;27.824;2023-05-02T12:32:59;102358.19;;;22.56;32.76
63090;BME280;49174;43.198;27.824;2023-05-02T12:35:29;102356.53;;;22.43;34.01
63090;BME280;49174;43.198;27.824;2023-05-02T12:38:10;102356.19;;;22.63;32.17
63090;BME280;49174;43.198;27.824;2023-05-02T12:40:36;102354.03;;;22.89;32.73
63090;BME280;49174;43.198;27.824;2023-05-02T12:43:03;102357.63;;;23.13;32.53
63090;BME280;49174;43.198;27.824;2023-05-02T12:45:31;102356.88;;;22.47;32.82
63090;BME280;49174;43.198;27.824;2023-05-02T12:48:01;102345.38;;;22.26;31.48
63090;BME280;49174;43.198;27.824;2023-05-02T12:50:37;102348.91;;;21.73;33.40
63090;BME280;49174;43.198;27.824;2023-05-02T12:53:02;102346.25;;;22.08;33.33
63090;BME280;49174;43.198;27.824;2023-05-02T12:55:28;102345.19;;;22.51;31.26
63090;BME280;49174;43.198;27.824;2023-05-02T12:58:01;102350.56;;;22.58;32.36
63090;BME280;49174;43.198;27.824;2023-05-02T13:00:27;102351.38;;;22.35;32.38
63090;BME280;49174;43.198;27.824;2023-05-02T13:02:53;102349.41;;;22.12;31.98
63090;BME280;49174;43.198;27.824;2023-05-02T13:05:19;102344.09;;;21.99;30.39
63090;BME280;49174;43.198;27.824;2023-05-02T13:07:45;102348.94;;;21.55;32.52
63090;BME280;49174;43.198;27.824;2023-05-02T13:10:11;102357.16;;;22.15;32.09
63090;BME280;49174;43.198;27.824;2023-05-02T13:12:38;102350.41;;;22.41;32.82
63090;BME280;49174;43.198;27.824;2023-05-02T13:15:04;102347.44;;;22.43;31.58
63090;BME280;49174;43.198;27.824;2023-05-02T13:17:31;102343.88;;;22.78;31.23
63090;BME280;49174;43.198;27.824;2023-05-02T13:19:57;102343.41;;;23.04;32.13
63090;BME280;49174;43.198;27.824;2023-05-02T13:22:23;102350.06;;;23.32;31.43
63090;BME280;49174;43.198;27.824;2023-05-02T13:24:48;102341.03;;;22.96;32.04
63090;BME280;49174;43.198;27.824;2023-05-02T13:27:14;102342.75;;;23.26;31.90
63090;BME280;49174;43.198;27.824;2023-05-02T13:29:43;102342.06;;;23.18;31.26
63090;BME280;49174;43.198;27.824;2023-05-02T13:32:08;102342.41;;;23.22;30.96
63090;BME280;49174;43.198;27.824;2023-05-02T13:34:34;102342.50;;;23.27;31.17
63090;BME280;49174;43.198;27.824;2023-05-02T13:36:59;102348.25;;;23.26;30.38
63090;BME280;49174;43.198;27.824;2023-05-02T13:39:25;102346.13;;;22.69;30.91
63090;BME280;49174;43.198;27.824;2023-05-02T13:41:50;102338.72;;;22.69;32.29
63090;BME280;49174;43.198;27.824;2023-05-02T13:44:16;102331.78;;;23.02;32.20
63090;BME280;49174;43.198;27.824;2023-05-02T13:46:41;102339.94;;;22.73;30.97
63090;BME280;49174;43.198;27.824;2023-05-02T13:49:07;102327.97;;;22.68;31.43
63090;BME280;49174;43.198;27.824;2023-05-02T13:51:32;102331.56;;;22.68;32.42
63090;BME280;49174;43.198;27.824;2023-05-02T13:53:59;102335.50;;;22.37;33.18
63090;BME280;49174;43.198;27.824;2023-05-02T13:56:24;102334.31;;;22.57;32.53
63090;BME280;49174;43.198;27.824;2023-05-02T13:58:50;102334.91;;;22.17;33.75
63090;BME280;49174;43.198;27.824;2023-05-02T14:01:15;102330.81;;;22.38;33.97
63090;BME280;49174;43.198;27.824;2023-05-02T14:03:41;102332.97;;;22.59;34.37
63090;BME280;49174;43.198;27.824;2023-05-02T14:06:07;102329.25;;;22.30;33.70
63090;BME280;49174;43.198;27.824;2023-05-02T14:08:32;102337.13;;;21.54;34.52
63090;BME280;49174;43.198;27.824;2023-05-02T14:10:58;102331.06;;;21.64;35.29
63090;BME280;49174;43.198;27.824;2023-05-02T14:13:24;102325.03;;;21.85;35.35
63090;BME280;49174;43.198;27.824;2023-05-02T14:15:49;102328.78;;;21.61;35.91
63090;BME280;49174;43.198;27.824;2023-05-02T14:18:15;102329.78;;;21.78;35.42
63090;BME280;49174;43.198;27.824;2023-05-02T14:20:41;102309.91;;;21.95;35.22
63090;BME280;49174;43.198;27.824;2023-05-02T14:23:07;102314.25;;;22.14;35.76
63090;BME280;49174;43.198;27.824;2023-05-02T14:25:33;102311.44;;;21.91;33.97
63090;BME280;49174;43.198;27.824;2023-05-02T14:27:58;102312.19;;;21.37;36.07
63090;BME280;49174;43.198;27.824;2023-05-02T14:30:24;102306.13;;;21.47;36.40
63090;BME280;49174;43.198;27.824;2023-05-02T14:32:50;102305.16;;;21.41;35.71
63090;BME280;49174;43.198;27.824;2023-05-02T14:35:16;102314.28;;;21.35;37.54
63090;BME280;49174;43.198;27.824;2023-05-02T14:37:41;102316.28;;;21.47;36.94
63090;BME280;49174;43.198;27.824;2023-05-02T14:40:09;102316.69;;;21.13;37.62
63090;BME280;49174;43.198;27.824;2023-05-02T14:42:35;102304.63;;;20.52;38.94
63090;BME280;49174;43.198;27.824;2023-05-02T14:45:00;102310.41;;;20.69;39.46
63090;BME280;49174;43.198;27.824;2023-05-02T14:47:29;102305.78;;;20.70;38.72
63090;BME280;49174;43.198;27.824;2023-05-02T14:49:55;102312.00;;;20.77;38.88
63090;BME280;49174;43.198;27.824;2023-05-02T14:52:21;102315.22;;;20.74;38.46
63090;BME280;49174;43.198;27.824;2023-05-02T14:54:47;102311.69;;;20.67;39.62
63090;BME280;49174;43.198;27.824;2023-05-02T14:57:12;102321.47;;;20.81;38.75
63090;BME280;49174;43.198;27.824;2023-05-02T14:59:38;102312.66;;;20.54;39.60
63090;BME280;49174;43.198;27.824;2023-05-02T15:02:04;102318.03;;;20.42;40.15
63090;BME280;49174;43.198;27.824;2023-05-02T15:04:30;102325.53;;;20.28;41.18
63090;BME280;49174;43.198;27.824;2023-05-02T15:06:55;102326.84;;;20.19;41.55
63090;BME280;49174;43.198;27.824;2023-05-02T15:09:23;102332.72;;;19.91;41.92
63090;BME280;49174;43.198;27.824;2023-05-02T15:11:51;102337.81;;;19.42;41.80
63090;BME280;49174;43.198;27.824;2023-05-02T15:14:17;102337.28;;;19.14;44.11
63090;BME280;49174;43.198;27.824;2023-05-02T15:16:42;102335.22;;;18.96;44.28
63090;BME280;49174;43.198;27.824;2023-05-02T15:19:08;102338.34;;;19.06;43.54
63090;BME280;49174;43.198;27.824;2023-05-02T15:21:33;102334.13;;;19.10;44.08